EFHK/HEL METAR and TAF weather

Enter ICAO airport designator
Station Type Date Time Source
EFHK METAR 2020/04/06 17:20 UTC NOAA

EFHK 061720Z 21011KT CAVOK 08/M01 Q1027 NOSIG


Station Type Date Time Source
EFHK Decoded METAR 2020/04/06 17:20 UTC NOAA

Helsinki-Vantaa, Finland (EFHK) 60-19N 024-58E 56M
Apr 06, 2020 - 01:20 PM EDT / 2020.04.06 1720 UTC
Wind: from the SSW (210 degrees) at 13 MPH (11 KT):0
Visibility: greater than 7 mile(s):0
Temperature: 46 F (8 C)
Dew Point: 30 F (-1 C)
Relative Humidity: 52%
Pressure (altimeter): 30.33 in. Hg (1027 hPa)
ob: EFHK 061720Z 21011KT CAVOK 08/M01 Q1027 NOSIG
cycle: 17

Station Type Date Time Source
EFHK TAF 2020/04/06 18:42 UTC NOAA

TAF TAF EFHK 061724Z 0618/0718 21011KT CAVOK PROB30 0710/0714 22015G25KT
TEMPO 0715/0718 6000 RA BKN011

Example: see airport list